石垣島, 日本

2015年3月06日 17時54分 (GMT +0900)
Ishigaki | Change Station
CLOSE
Current Station
機場
Location: Ishigakijima,
海拔: 23 ft
附近的氣象站

海拔 23 ft 24.34 °N, 124.16 °E | Updated 54 minutes ago

Mostly Cloudy
多雲
70 °F
感覺像 70 °F
10
風 變化 風 來自

今日
高 -- | 低 -- °F
--% 降水機率
昨天
高 -- | 低 -- °F
Precip. -- 英寸
7:01 AM 6:47 PM
滿月, 100% visible
氣壓 29.95 英寸
能見度 6.2 英里
多雲 少數 1400 ft
多雲 2500 ft
露點 64 °F
濕度 83%
降雨量 0.00 英寸
積雪深度 不適用。
紫外線 1 / 12
花粉 不適用。
空氣質素 不適用。
Flu Activity 不適用。
METAR ROIG 060800Z 01009KT 9999 FEW014 BKN025 21/18 Q1014

More Conditions Fewer Conditions

氣壓 29.95 英寸
能見度 6.2 英里
多雲 少數 1400 ft
多雲 2500 ft
露點 64 °F
濕度 83%
降雨量 0.00 英寸
積雪深度 不適用。
紫外線 1 / 12
花粉 不適用。
空氣質素 不適用。
Flu Activity 不適用。
METAR ROIG 060800Z 01009KT 9999 FEW014 BKN025 21/18 Q1014

More Conditions Fewer Conditions

10-Day Weather Forecast

Almanac

天文

Mar. 06, 2015 昇起 降落
實際時間
民用曙暮光
航海曙暮光
天文學微明
月亮
可見光的長度
白晝時間
Tomorrow will be .
, % of the Moon is Illuminated

今天之最

國家高溫 國家低溫

Community

WunderPhotos

Upload Photos

1,803,211 照片已上傳!

WunderBlogs® & News

Nearby

空氣質素

  空氣質素 空氣質素指數 污染物
Not available.

積雪量

Station 深度 海拔

地震活動

城市 距離 時間和日期
顯示的最小幅度是2.5。

沿海水溫

地點 溫度

附近的氣象站